sensor_id;sensor_type;location;lat;lon;timestamp;temperature;humidity
20654;DHT22;21083;50.898;4.902;2023-10-08T00:01:49;18.00;99.90
20654;DHT22;21083;50.898;4.902;2023-10-08T00:04:17;17.80;99.90
20654;DHT22;21083;50.898;4.902;2023-10-08T00:06:45;18.00;99.90
20654;DHT22;21083;50.898;4.902;2023-10-08T00:09:12;17.90;99.90
20654;DHT22;21083;50.898;4.902;2023-10-08T00:11:41;17.90;99.90
20654;DHT22;21083;50.898;4.902;2023-10-08T00:14:08;17.70;99.90
20654;DHT22;21083;50.898;4.902;2023-10-08T00:16:37;17.70;99.90
20654;DHT22;21083;50.898;4.902;2023-10-08T00:19:06;17.60;99.90
20654;DHT22;21083;50.898;4.902;2023-10-08T00:21:39;17.60;99.90
20654;DHT22;21083;50.898;4.902;2023-10-08T00:24:07;17.60;99.90
20654;DHT22;21083;50.898;4.902;2023-10-08T00:26:35;17.60;99.90
20654;DHT22;21083;50.898;4.902;2023-10-08T00:29:06;17.60;99.90
20654;DHT22;21083;50.898;4.902;2023-10-08T00:31:43;17.60;99.90
20654;DHT22;21083;50.898;4.902;2023-10-08T00:34:11;17.60;99.90
20654;DHT22;21083;50.898;4.902;2023-10-08T00:36:40;17.50;99.90
20654;DHT22;21083;50.898;4.902;2023-10-08T00:39:08;17.50;99.90
20654;DHT22;21083;50.898;4.902;2023-10-08T00:41:40;17.50;99.90
20654;DHT22;21083;50.898;4.902;2023-10-08T00:44:09;17.50;99.90
20654;DHT22;21083;50.898;4.902;2023-10-08T00:46:38;17.60;99.90
20654;DHT22;21083;50.898;4.902;2023-10-08T00:49:09;17.50;99.90
20654;DHT22;21083;50.898;4.902;2023-10-08T00:51:54;17.50;99.90
20654;DHT22;21083;50.898;4.902;2023-10-08T00:54:50;17.40;99.90
20654;DHT22;21083;50.898;4.902;2023-10-08T00:57:33;17.30;99.90
20654;DHT22;21083;50.898;4.902;2023-10-08T01:00:03;17.40;99.90
20654;DHT22;21083;50.898;4.902;2023-10-08T01:02:40;17.40;99.90
20654;DHT22;21083;50.898;4.902;2023-10-08T01:05:14;17.30;99.90
20654;DHT22;21083;50.898;4.902;2023-10-08T01:07:46;17.30;99.90
20654;DHT22;21083;50.898;4.902;2023-10-08T01:10:14;17.30;99.90
20654;DHT22;21083;50.898;4.902;2023-10-08T01:12:46;17.30;99.90
20654;DHT22;21083;50.898;4.902;2023-10-08T01:15:29;17.30;99.90
20654;DHT22;21083;50.898;4.902;2023-10-08T01:18:01;17.30;99.90
20654;DHT22;21083;50.898;4.902;2023-10-08T01:20:32;17.10;99.90
20654;DHT22;21083;50.898;4.902;2023-10-08T01:23:07;17.20;99.90
20654;DHT22;21083;50.898;4.902;2023-10-08T01:25:39;17.10;99.90
20654;DHT22;21083;50.898;4.902;2023-10-08T01:28:07;17.00;99.90
20654;DHT22;21083;50.898;4.902;2023-10-08T01:30:41;16.90;99.90
20654;DHT22;21083;50.898;4.902;2023-10-08T01:33:12;16.80;99.90
20654;DHT22;21083;50.898;4.902;2023-10-08T01:35:41;16.70;99.90
20654;DHT22;21083;50.898;4.902;2023-10-08T01:38:10;16.70;99.90
20654;DHT22;21083;50.898;4.902;2023-10-08T01:40:40;16.70;99.90
20654;DHT22;21083;50.898;4.902;2023-10-08T01:43:07;16.80;99.90
20654;DHT22;21083;50.898;4.902;2023-10-08T01:45:38;16.80;99.90
20654;DHT22;21083;50.898;4.902;2023-10-08T01:48:08;16.90;99.90
20654;DHT22;21083;50.898;4.902;2023-10-08T01:50:36;16.80;99.90
20654;DHT22;21083;50.898;4.902;2023-10-08T01:53:04;16.80;99.90
20654;DHT22;21083;50.898;4.902;2023-10-08T01:55:36;16.70;99.90
20654;DHT22;21083;50.898;4.902;2023-10-08T01:58:16;16.70;99.90
20654;DHT22;21083;50.898;4.902;2023-10-08T02:00:44;16.70;99.90
20654;DHT22;21083;50.898;4.902;2023-10-08T02:03:12;16.70;99.90
20654;DHT22;21083;50.898;4.902;2023-10-08T02:05:42;16.70;99.90
20654;DHT22;21083;50.898;4.902;2023-10-08T02:08:09;16.90;99.90
20654;DHT22;21083;50.898;4.902;2023-10-08T02:10:38;16.80;99.90
20654;DHT22;21083;50.898;4.902;2023-10-08T02:13:06;16.80;99.90
20654;DHT22;21083;50.898;4.902;2023-10-08T02:15:35;16.90;99.90
20654;DHT22;21083;50.898;4.902;2023-10-08T02:18:05;16.80;99.90
20654;DHT22;21083;50.898;4.902;2023-10-08T02:20:32;16.80;99.90
20654;DHT22;21083;50.898;4.902;2023-10-08T02:22:59;16.90;99.90
20654;DHT22;21083;50.898;4.902;2023-10-08T02:25:27;16.90;99.90
20654;DHT22;21083;50.898;4.902;2023-10-08T02:27:55;16.80;99.90
20654;DHT22;21083;50.898;4.902;2023-10-08T02:30:23;16.90;99.90
20654;DHT22;21083;50.898;4.902;2023-10-08T02:32:50;16.80;99.90
20654;DHT22;21083;50.898;4.902;2023-10-08T02:35:18;16.70;99.90
20654;DHT22;21083;50.898;4.902;2023-10-08T02:37:45;16.70;99.90
20654;DHT22;21083;50.898;4.902;2023-10-08T02:40:12;16.70;99.90
20654;DHT22;21083;50.898;4.902;2023-10-08T02:42:47;16.60;99.90
20654;DHT22;21083;50.898;4.902;2023-10-08T02:45:15;16.60;99.90
20654;DHT22;21083;50.898;4.902;2023-10-08T02:47:44;16.50;99.90
20654;DHT22;21083;50.898;4.902;2023-10-08T02:50:11;16.50;99.90
20654;DHT22;21083;50.898;4.902;2023-10-08T02:52:43;16.50;99.90
20654;DHT22;21083;50.898;4.902;2023-10-08T02:55:11;16.60;99.90
20654;DHT22;21083;50.898;4.902;2023-10-08T02:57:51;16.60;99.90
20654;DHT22;21083;50.898;4.902;2023-10-08T03:00:19;16.60;99.90
20654;DHT22;21083;50.898;4.902;2023-10-08T03:02:47;16.50;99.90
20654;DHT22;21083;50.898;4.902;2023-10-08T03:05:15;16.60;99.90
20654;DHT22;21083;50.898;4.902;2023-10-08T03:07:44;16.60;99.90
20654;DHT22;21083;50.898;4.902;2023-10-08T03:10:12;16.60;99.90
20654;DHT22;21083;50.898;4.902;2023-10-08T03:12:44;16.60;99.90
20654;DHT22;21083;50.898;4.902;2023-10-08T03:15:14;16.50;99.90
20654;DHT22;21083;50.898;4.902;2023-10-08T03:17:55;16.50;99.90
20654;DHT22;21083;50.898;4.902;2023-10-08T03:20:23;16.70;99.90
20654;DHT22;21083;50.898;4.902;2023-10-08T03:23:04;16.70;99.90
20654;DHT22;21083;50.898;4.902;2023-10-08T03:25:38;16.60;99.90
20654;DHT22;21083;50.898;4.902;2023-10-08T03:28:08;16.50;99.90
20654;DHT22;21083;50.898;4.902;2023-10-08T03:30:38;16.50;99.90
20654;DHT22;21083;50.898;4.902;2023-10-08T03:33:16;16.50;99.90
20654;DHT22;21083;50.898;4.902;2023-10-08T03:35:48;16.50;99.90
20654;DHT22;21083;50.898;4.902;2023-10-08T03:38:19;16.40;99.90
20654;DHT22;21083;50.898;4.902;2023-10-08T03:40:54;16.40;99.90
20654;DHT22;21083;50.898;4.902;2023-10-08T03:43:29;16.50;99.90
20654;DHT22;21083;50.898;4.902;2023-10-08T03:46:09;16.50;99.90
20654;DHT22;21083;50.898;4.902;2023-10-08T03:48:42;16.60;99.90
20654;DHT22;21083;50.898;4.902;2023-10-08T03:51:11;16.60;99.90
20654;DHT22;21083;50.898;4.902;2023-10-08T03:53:39;16.50;99.90
20654;DHT22;21083;50.898;4.902;2023-10-08T03:56:24;16.50;99.90
20654;DHT22;21083;50.898;4.902;2023-10-08T03:58:51;16.40;99.90
20654;DHT22;21083;50.898;4.902;2023-10-08T04:01:20;16.30;99.90
20654;DHT22;21083;50.898;4.902;2023-10-08T04:03:50;16.30;99.90
20654;DHT22;21083;50.898;4.902;2023-10-08T04:06:28;16.30;99.90
20654;DHT22;21083;50.898;4.902;2023-10-08T04:09:04;16.40;99.90
20654;DHT22;21083;50.898;4.902;2023-10-08T04:11:45;16.40;99.90
20654;DHT22;21083;50.898;4.902;2023-10-08T04:14:19;16.40;99.90
20654;DHT22;21083;50.898;4.902;2023-10-08T04:16:47;16.40;99.90
20654;DHT22;21083;50.898;4.902;2023-10-08T04:19:18;16.40;99.90
20654;DHT22;21083;50.898;4.902;2023-10-08T04:21:46;16.40;99.90
20654;DHT22;21083;50.898;4.902;2023-10-08T04:24:20;16.30;99.90
20654;DHT22;21083;50.898;4.902;2023-10-08T04:26:54;16.30;99.90
20654;DHT22;21083;50.898;4.902;2023-10-08T04:29:23;16.30;99.90
20654;DHT22;21083;50.898;4.902;2023-10-08T04:31:50;16.30;99.90
20654;DHT22;21083;50.898;4.902;2023-10-08T04:34:29;16.20;99.90
20654;DHT22;21083;50.898;4.902;2023-10-08T04:36:58;16.10;99.90
20654;DHT22;21083;50.898;4.902;2023-10-08T04:39:29;16.20;99.90
20654;DHT22;21083;50.898;4.902;2023-10-08T04:41:59;16.10;99.90
20654;DHT22;21083;50.898;4.902;2023-10-08T04:44:32;16.10;99.90
20654;DHT22;21083;50.898;4.902;2023-10-08T04:46:59;16.10;99.90
20654;DHT22;21083;50.898;4.902;2023-10-08T04:49:33;16.10;99.90
20654;DHT22;21083;50.898;4.902;2023-10-08T04:52:05;16.10;99.90
20654;DHT22;21083;50.898;4.902;2023-10-08T04:54:35;16.10;99.90
20654;DHT22;21083;50.898;4.902;2023-10-08T04:57:07;16.10;99.90
20654;DHT22;21083;50.898;4.902;2023-10-08T04:59:41;16.10;99.90
20654;DHT22;21083;50.898;4.902;2023-10-08T05:02:09;16.10;99.90
20654;DHT22;21083;50.898;4.902;2023-10-08T05:04:47;16.10;99.90
20654;DHT22;21083;50.898;4.902;2023-10-08T05:07:32;16.10;99.90
20654;DHT22;21083;50.898;4.902;2023-10-08T05:10:22;16.00;99.90
20654;DHT22;21083;50.898;4.902;2023-10-08T05:13:10;16.00;99.90
20654;DHT22;21083;50.898;4.902;2023-10-08T05:15:42;16.00;99.90
20654;DHT22;21083;50.898;4.902;2023-10-08T05:18:28;16.00;99.90
20654;DHT22;21083;50.898;4.902;2023-10-08T05:21:21;15.90;99.90
20654;DHT22;21083;50.898;4.902;2023-10-08T05:23:54;16.00;99.90
20654;DHT22;21083;50.898;4.902;2023-10-08T05:26:37;15.90;99.90
20654;DHT22;21083;50.898;4.902;2023-10-08T05:29:10;15.90;99.90
20654;DHT22;21083;50.898;4.902;2023-10-08T05:32:15;15.90;99.90
20654;DHT22;21083;50.898;4.902;2023-10-08T05:35:10;15.90;99.90
20654;DHT22;21083;50.898;4.902;2023-10-08T05:37:58;15.80;99.90
20654;DHT22;21083;50.898;4.902;2023-10-08T05:40:39;15.80;99.90
20654;DHT22;21083;50.898;4.902;2023-10-08T05:43:31;15.80;99.90
20654;DHT22;21083;50.898;4.902;2023-10-08T05:46:21;15.80;99.90
20654;DHT22;21083;50.898;4.902;2023-10-08T05:49:12;15.80;99.90
20654;DHT22;21083;50.898;4.902;2023-10-08T05:51:52;15.70;99.90
20654;DHT22;21083;50.898;4.902;2023-10-08T05:54:37;15.60;99.90
20654;DHT22;21083;50.898;4.902;2023-10-08T05:57:23;15.70;99.90
20654;DHT22;21083;50.898;4.902;2023-10-08T06:00:05;15.60;99.90
20654;DHT22;21083;50.898;4.902;2023-10-08T06:03:08;15.60;99.90
20654;DHT22;21083;50.898;4.902;2023-10-08T06:05:47;15.50;99.90
20654;DHT22;21083;50.898;4.902;2023-10-08T06:08:30;15.50;99.90
20654;DHT22;21083;50.898;4.902;2023-10-08T06:11:16;15.50;99.90
20654;DHT22;21083;50.898;4.902;2023-10-08T06:13:54;15.50;99.90
20654;DHT22;21083;50.898;4.902;2023-10-08T06:16:26;15.60;99.90
20654;DHT22;21083;50.898;4.902;2023-10-08T06:19:26;15.50;99.90
20654;DHT22;21083;50.898;4.902;2023-10-08T06:21:53;15.50;99.90
20654;DHT22;21083;50.898;4.902;2023-10-08T06:24:20;15.60;99.90
20654;DHT22;21083;50.898;4.902;2023-10-08T06:26:47;15.60;99.90
20654;DHT22;21083;50.898;4.902;2023-10-08T06:29:15;15.60;99.90
20654;DHT22;21083;50.898;4.902;2023-10-08T06:31:52;15.70;99.90
20654;DHT22;21083;50.898;4.902;2023-10-08T06:34:21;15.60;99.90
20654;DHT22;21083;50.898;4.902;2023-10-08T06:36:51;15.70;99.90
20654;DHT22;21083;50.898;4.902;2023-10-08T06:39:20;15.70;99.90
20654;DHT22;21083;50.898;4.902;2023-10-08T06:41:52;15.80;99.90
20654;DHT22;21083;50.898;4.902;2023-10-08T06:44:20;15.80;99.90
20654;DHT22;21083;50.898;4.902;2023-10-08T06:46:47;15.80;99.90
20654;DHT22;21083;50.898;4.902;2023-10-08T06:49:18;15.80;99.90
20654;DHT22;21083;50.898;4.902;2023-10-08T06:51:51;15.80;99.90
20654;DHT22;21083;50.898;4.902;2023-10-08T06:54:19;15.90;99.90
20654;DHT22;21083;50.898;4.902;2023-10-08T06:56:48;15.80;99.90
20654;DHT22;21083;50.898;4.902;2023-10-08T06:59:17;15.90;99.90
20654;DHT22;21083;50.898;4.902;2023-10-08T07:01:45;15.90;99.90
20654;DHT22;21083;50.898;4.902;2023-10-08T07:04:13;15.90;99.90
20654;DHT22;21083;50.898;4.902;2023-10-08T07:06:40;15.90;99.90
20654;DHT22;21083;50.898;4.902;2023-10-08T07:09:10;16.00;99.90
20654;DHT22;21083;50.898;4.902;2023-10-08T07:11:49;16.10;99.90
20654;DHT22;21083;50.898;4.902;2023-10-08T07:14:21;16.10;99.90
20654;DHT22;21083;50.898;4.902;2023-10-08T07:16:48;16.20;99.90
20654;DHT22;21083;50.898;4.902;2023-10-08T07:19:18;16.20;99.90
20654;DHT22;21083;50.898;4.902;2023-10-08T07:21:46;16.20;99.90
20654;DHT22;21083;50.898;4.902;2023-10-08T07:24:15;16.20;99.90
20654;DHT22;21083;50.898;4.902;2023-10-08T07:26:44;16.30;99.90
20654;DHT22;21083;50.898;4.902;2023-10-08T07:29:14;16.30;99.90
20654;DHT22;21083;50.898;4.902;2023-10-08T07:31:43;16.20;99.90
20654;DHT22;21083;50.898;4.902;2023-10-08T07:34:15;16.30;99.90
20654;DHT22;21083;50.898;4.902;2023-10-08T07:36:52;16.30;99.90
20654;DHT22;21083;50.898;4.902;2023-10-08T07:39:22;16.30;99.90
20654;DHT22;21083;50.898;4.902;2023-10-08T07:41:53;16.40;99.90
20654;DHT22;21083;50.898;4.902;2023-10-08T07:44:21;16.50;99.90
20654;DHT22;21083;50.898;4.902;2023-10-08T07:46:49;16.40;99.90
20654;DHT22;21083;50.898;4.902;2023-10-08T07:49:16;16.40;99.90
20654;DHT22;21083;50.898;4.902;2023-10-08T07:51:44;16.50;99.90
20654;DHT22;21083;50.898;4.902;2023-10-08T07:54:17;16.60;99.90
20654;DHT22;21083;50.898;4.902;2023-10-08T07:56:47;16.70;99.90
20654;DHT22;21083;50.898;4.902;2023-10-08T07:59:14;16.80;99.90
20654;DHT22;21083;50.898;4.902;2023-10-08T08:01:42;16.80;99.90
20654;DHT22;21083;50.898;4.902;2023-10-08T08:04:10;17.00;99.90
20654;DHT22;21083;50.898;4.902;2023-10-08T08:06:40;16.90;99.90
20654;DHT22;21083;50.898;4.902;2023-10-08T08:09:07;17.00;99.90
20654;DHT22;21083;50.898;4.902;2023-10-08T08:11:43;17.00;99.90
20654;DHT22;21083;50.898;4.902;2023-10-08T08:14:15;17.10;99.90
20654;DHT22;21083;50.898;4.902;2023-10-08T08:16:44;17.10;99.90
20654;DHT22;21083;50.898;4.902;2023-10-08T08:19:14;17.20;99.90
20654;DHT22;21083;50.898;4.902;2023-10-08T08:21:43;17.30;99.90
20654;DHT22;21083;50.898;4.902;2023-10-08T08:24:12;17.40;99.90
20654;DHT22;21083;50.898;4.902;2023-10-08T08:26:39;17.50;99.90
20654;DHT22;21083;50.898;4.902;2023-10-08T08:29:25;17.50;99.90
20654;DHT22;21083;50.898;4.902;2023-10-08T08:31:52;17.50;99.90
20654;DHT22;21083;50.898;4.902;2023-10-08T08:34:19;17.50;99.90
20654;DHT22;21083;50.898;4.902;2023-10-08T08:36:46;17.70;99.90
20654;DHT22;21083;50.898;4.902;2023-10-08T08:39:15;17.70;99.90
20654;DHT22;21083;50.898;4.902;2023-10-08T08:41:59;17.70;99.90
20654;DHT22;21083;50.898;4.902;2023-10-08T08:44:31;17.80;99.90
20654;DHT22;21083;50.898;4.902;2023-10-08T08:47:00;17.90;99.90
20654;DHT22;21083;50.898;4.902;2023-10-08T08:49:32;18.00;99.90
20654;DHT22;21083;50.898;4.902;2023-10-08T08:52:00;18.10;99.90
20654;DHT22;21083;50.898;4.902;2023-10-08T08:54:27;18.10;99.90
20654;DHT22;21083;50.898;4.902;2023-10-08T08:56:56;18.20;99.90
20654;DHT22;21083;50.898;4.902;2023-10-08T08:59:26;18.20;99.90
20654;DHT22;21083;50.898;4.902;2023-10-08T09:01:58;18.40;99.90
20654;DHT22;21083;50.898;4.902;2023-10-08T09:04:29;18.60;99.90
20654;DHT22;21083;50.898;4.902;2023-10-08T09:06:59;18.70;99.90
20654;DHT22;21083;50.898;4.902;2023-10-08T09:09:33;18.80;99.90
20654;DHT22;21083;50.898;4.902;2023-10-08T09:12:01;18.90;99.90
20654;DHT22;21083;50.898;4.902;2023-10-08T09:14:31;19.00;99.90
20654;DHT22;21083;50.898;4.902;2023-10-08T09:17:01;19.10;99.90
20654;DHT22;21083;50.898;4.902;2023-10-08T09:19:30;19.20;99.90
20654;DHT22;21083;50.898;4.902;2023-10-08T09:22:01;19.30;99.90
20654;DHT22;21083;50.898;4.902;2023-10-08T09:24:30;19.30;99.90
20654;DHT22;21083;50.898;4.902;2023-10-08T09:26:59;19.50;99.90
20654;DHT22;21083;50.898;4.902;2023-10-08T09:29:28;19.50;99.90
20654;DHT22;21083;50.898;4.902;2023-10-08T09:31:56;19.70;99.90
20654;DHT22;21083;50.898;4.902;2023-10-08T09:34:28;19.70;99.90
20654;DHT22;21083;50.898;4.902;2023-10-08T09:36:56;19.90;99.90
20654;DHT22;21083;50.898;4.902;2023-10-08T09:39:26;20.00;99.90
20654;DHT22;21083;50.898;4.902;2023-10-08T09:41:55;20.20;99.90
20654;DHT22;21083;50.898;4.902;2023-10-08T09:44:23;20.20;99.90
20654;DHT22;21083;50.898;4.902;2023-10-08T09:46:53;20.50;99.90
20654;DHT22;21083;50.898;4.902;2023-10-08T09:49:31;20.60;99.90
20654;DHT22;21083;50.898;4.902;2023-10-08T09:52:02;20.60;99.90
20654;DHT22;21083;50.898;4.902;2023-10-08T09:54:35;20.60;99.90
20654;DHT22;21083;50.898;4.902;2023-10-08T09:57:05;20.60;99.90
20654;DHT22;21083;50.898;4.902;2023-10-08T09:59:33;20.50;99.90
20654;DHT22;21083;50.898;4.902;2023-10-08T10:02:01;20.50;99.90
20654;DHT22;21083;50.898;4.902;2023-10-08T10:04:31;20.70;99.90
20654;DHT22;21083;50.898;4.902;2023-10-08T10:06:59;20.90;99.90
20654;DHT22;21083;50.898;4.902;2023-10-08T10:09:33;21.10;99.90
20654;DHT22;21083;50.898;4.902;2023-10-08T10:12:02;21.20;99.90
20654;DHT22;21083;50.898;4.902;2023-10-08T10:14:41;21.40;99.90
20654;DHT22;21083;50.898;4.902;2023-10-08T10:17:09;21.50;99.90
20654;DHT22;21083;50.898;4.902;2023-10-08T10:19:41;21.70;99.90
20654;DHT22;21083;50.898;4.902;2023-10-08T10:22:13;22.00;99.90
20654;DHT22;21083;50.898;4.902;2023-10-08T10:24:42;22.20;99.90
20654;DHT22;21083;50.898;4.902;2023-10-08T10:27:12;22.30;99.90
20654;DHT22;21083;50.898;4.902;2023-10-08T10:29:40;22.50;99.90
20654;DHT22;21083;50.898;4.902;2023-10-08T10:32:11;22.60;99.90
20654;DHT22;21083;50.898;4.902;2023-10-08T10:34:41;22.70;99.90
20654;DHT22;21083;50.898;4.902;2023-10-08T10:37:09;22.90;99.90
20654;DHT22;21083;50.898;4.902;2023-10-08T10:39:51;23.00;99.90
20654;DHT22;21083;50.898;4.902;2023-10-08T10:42:20;23.10;99.90
20654;DHT22;21083;50.898;4.902;2023-10-08T10:44:49;23.30;99.90
20654;DHT22;21083;50.898;4.902;2023-10-08T10:47:17;23.30;99.90
20654;DHT22;21083;50.898;4.902;2023-10-08T10:49:54;23.50;99.90
20654;DHT22;21083;50.898;4.902;2023-10-08T10:52:41;23.70;99.90
20654;DHT22;21083;50.898;4.902;2023-10-08T10:55:12;23.90;99.90
20654;DHT22;21083;50.898;4.902;2023-10-08T10:57:50;23.90;99.90
20654;DHT22;21083;50.898;4.902;2023-10-08T11:00:30;24.10;99.90
20654;DHT22;21083;50.898;4.902;2023-10-08T11:03:23;24.40;99.90
20654;DHT22;21083;50.898;4.902;2023-10-08T11:05:53;24.50;99.90
20654;DHT22;21083;50.898;4.902;2023-10-08T11:08:22;24.70;99.90
20654;DHT22;21083;50.898;4.902;2023-10-08T11:10:51;25.00;99.90
20654;DHT22;21083;50.898;4.902;2023-10-08T11:13:20;25.20;99.90
20654;DHT22;21083;50.898;4.902;2023-10-08T11:15:49;25.30;99.90
20654;DHT22;21083;50.898;4.902;2023-10-08T11:18:18;25.60;99.90
20654;DHT22;21083;50.898;4.902;2023-10-08T11:20:47;25.60;99.90
20654;DHT22;21083;50.898;4.902;2023-10-08T11:23:36;25.80;99.90
20654;DHT22;21083;50.898;4.902;2023-10-08T11:26:04;25.90;99.90
20654;DHT22;21083;50.898;4.902;2023-10-08T11:28:33;26.00;99.90
20654;DHT22;21083;50.898;4.902;2023-10-08T11:31:01;26.00;99.90
20654;DHT22;21083;50.898;4.902;2023-10-08T11:33:35;26.00;99.90
20654;DHT22;21083;50.898;4.902;2023-10-08T11:36:03;26.20;99.90
20654;DHT22;21083;50.898;4.902;2023-10-08T11:38:40;26.20;99.90
20654;DHT22;21083;50.898;4.902;2023-10-08T11:41:11;26.30;99.90
20654;DHT22;21083;50.898;4.902;2023-10-08T11:43:48;26.20;99.90
20654;DHT22;21083;50.898;4.902;2023-10-08T11:46:20;26.00;99.90
20654;DHT22;21083;50.898;4.902;2023-10-08T11:48:47;26.00;99.90
20654;DHT22;21083;50.898;4.902;2023-10-08T11:51:16;25.90;99.90
20654;DHT22;21083;50.898;4.902;2023-10-08T11:53:45;26.30;99.90
20654;DHT22;21083;50.898;4.902;2023-10-08T11:56:12;26.50;99.90
20654;DHT22;21083;50.898;4.902;2023-10-08T11:58:40;26.70;99.90
20654;DHT22;21083;50.898;4.902;2023-10-08T12:01:11;26.80;99.90
20654;DHT22;21083;50.898;4.902;2023-10-08T12:03:42;26.80;99.90
20654;DHT22;21083;50.898;4.902;2023-10-08T12:06:10;26.60;99.90
20654;DHT22;21083;50.898;4.902;2023-10-08T12:08:41;26.80;99.90
20654;DHT22;21083;50.898;4.902;2023-10-08T12:11:13;27.00;99.90
20654;DHT22;21083;50.898;4.902;2023-10-08T12:13:40;27.20;99.90
20654;DHT22;21083;50.898;4.902;2023-10-08T12:16:11;27.30;99.90
20654;DHT22;21083;50.898;4.902;2023-10-08T12:18:47;27.60;99.90
20654;DHT22;21083;50.898;4.902;2023-10-08T12:21:19;27.90;99.90
20654;DHT22;21083;50.898;4.902;2023-10-08T12:23:48;28.00;99.90
20654;DHT22;21083;50.898;4.902;2023-10-08T12:26:17;28.30;99.90
20654;DHT22;21083;50.898;4.902;2023-10-08T12:28:45;28.40;99.90
20654;DHT22;21083;50.898;4.902;2023-10-08T12:31:14;28.50;99.90
20654;DHT22;21083;50.898;4.902;2023-10-08T12:33:42;28.70;99.90
20654;DHT22;21083;50.898;4.902;2023-10-08T12:36:11;28.30;99.90
20654;DHT22;21083;50.898;4.902;2023-10-08T12:38:39;28.10;99.90
20654;DHT22;21083;50.898;4.902;2023-10-08T12:41:07;28.00;99.90
20654;DHT22;21083;50.898;4.902;2023-10-08T12:43:43;28.20;99.90
20654;DHT22;21083;50.898;4.902;2023-10-08T12:46:12;28.30;99.90
20654;DHT22;21083;50.898;4.902;2023-10-08T12:48:44;28.10;99.90
20654;DHT22;21083;50.898;4.902;2023-10-08T12:51:14;28.10;99.90
20654;DHT22;21083;50.898;4.902;2023-10-08T12:53:42;28.30;99.90
20654;DHT22;21083;50.898;4.902;2023-10-08T12:56:16;28.20;99.90
20654;DHT22;21083;50.898;4.902;2023-10-08T12:58:48;28.20;99.90
20654;DHT22;21083;50.898;4.902;2023-10-08T13:01:15;28.60;99.90
20654;DHT22;21083;50.898;4.902;2023-10-08T13:03:44;28.40;99.90
20654;DHT22;21083;50.898;4.902;2023-10-08T13:06:15;28.40;99.90
20654;DHT22;21083;50.898;4.902;2023-10-08T13:08:48;28.70;99.90
20654;DHT22;21083;50.898;4.902;2023-10-08T13:11:17;29.30;99.90
20654;DHT22;21083;50.898;4.902;2023-10-08T13:13:50;29.70;99.90
20654;DHT22;21083;50.898;4.902;2023-10-08T13:16:18;29.90;99.90
20654;DHT22;21083;50.898;4.902;2023-10-08T13:18:47;30.10;99.90
20654;DHT22;21083;50.898;4.902;2023-10-08T13:21:14;30.50;99.90
20654;DHT22;21083;50.898;4.902;2023-10-08T13:23:41;30.50;99.90
20654;DHT22;21083;50.898;4.902;2023-10-08T13:26:08;30.60;99.90
20654;DHT22;21083;50.898;4.902;2023-10-08T13:28:36;30.90;99.90
20654;DHT22;21083;50.898;4.902;2023-10-08T13:31:04;30.80;99.90
20654;DHT22;21083;50.898;4.902;2023-10-08T13:33:36;30.40;99.90
20654;DHT22;21083;50.898;4.902;2023-10-08T13:36:05;30.00;99.90
20654;DHT22;21083;50.898;4.902;2023-10-08T13:38:35;29.80;99.90
20654;DHT22;21083;50.898;4.902;2023-10-08T13:41:02;30.00;99.90
20654;DHT22;21083;50.898;4.902;2023-10-08T13:43:32;30.30;99.90
20654;DHT22;21083;50.898;4.902;2023-10-08T13:46:05;30.30;99.90
20654;DHT22;21083;50.898;4.902;2023-10-08T13:48:34;30.00;99.90
20654;DHT22;21083;50.898;4.902;2023-10-08T13:51:01;30.30;99.90
20654;DHT22;21083;50.898;4.902;2023-10-08T13:53:30;30.80;99.90
20654;DHT22;21083;50.898;4.902;2023-10-08T13:55:58;31.10;99.90
20654;DHT22;21083;50.898;4.902;2023-10-08T13:58:27;31.30;99.90
20654;DHT22;21083;50.898;4.902;2023-10-08T14:00:56;31.40;99.90
20654;DHT22;21083;50.898;4.902;2023-10-08T14:03:27;31.40;99.90
20654;DHT22;21083;50.898;4.902;2023-10-08T14:05:57;31.60;99.90
20654;DHT22;21083;50.898;4.902;2023-10-08T14:08:28;31.50;99.90
20654;DHT22;21083;50.898;4.902;2023-10-08T14:10:56;31.30;99.90
20654;DHT22;21083;50.898;4.902;2023-10-08T14:13:29;30.60;99.90
20654;DHT22;21083;50.898;4.902;2023-10-08T14:15:57;30.10;99.90
20654;DHT22;21083;50.898;4.902;2023-10-08T14:18:24;29.80;99.90
20654;DHT22;21083;50.898;4.902;2023-10-08T14:20:55;30.00;99.90
20654;DHT22;21083;50.898;4.902;2023-10-08T14:23:23;30.60;99.90
20654;DHT22;21083;50.898;4.902;2023-10-08T14:25:51;31.10;99.90
20654;DHT22;21083;50.898;4.902;2023-10-08T14:28:21;31.50;99.90
20654;DHT22;21083;50.898;4.902;2023-10-08T14:31:06;31.00;99.90
20654;DHT22;21083;50.898;4.902;2023-10-08T14:33:33;30.70;99.90
20654;DHT22;21083;50.898;4.902;2023-10-08T14:36:09;30.80;99.90
20654;DHT22;21083;50.898;4.902;2023-10-08T14:38:54;30.20;99.90
20654;DHT22;21083;50.898;4.902;2023-10-08T14:41:38;30.00;99.90
20654;DHT22;21083;50.898;4.902;2023-10-08T14:44:23;29.90;99.90
20654;DHT22;21083;50.898;4.902;2023-10-08T14:46:50;29.40;99.90
20654;DHT22;21083;50.898;4.902;2023-10-08T14:49:20;29.00;99.90
20654;DHT22;21083;50.898;4.902;2023-10-08T14:51:49;28.60;99.90
20654;DHT22;21083;50.898;4.902;2023-10-08T14:54:19;28.30;99.90
20654;DHT22;21083;50.898;4.902;2023-10-08T14:56:47;28.30;99.90
20654;DHT22;21083;50.898;4.902;2023-10-08T14:59:14;28.50;99.90
20654;DHT22;21083;50.898;4.902;2023-10-08T15:01:43;28.50;99.90
20654;DHT22;21083;50.898;4.902;2023-10-08T15:04:13;28.40;99.90
20654;DHT22;21083;50.898;4.902;2023-10-08T15:06:40;28.20;99.90
20654;DHT22;21083;50.898;4.902;2023-10-08T15:09:10;28.00;99.90
20654;DHT22;21083;50.898;4.902;2023-10-08T15:11:44;28.10;99.90
20654;DHT22;21083;50.898;4.902;2023-10-08T15:14:11;28.30;99.90
20654;DHT22;21083;50.898;4.902;2023-10-08T15:16:42;28.70;99.90
20654;DHT22;21083;50.898;4.902;2023-10-08T15:19:12;29.10;99.90
20654;DHT22;21083;50.898;4.902;2023-10-08T15:21:41;29.50;99.90
20654;DHT22;21083;50.898;4.902;2023-10-08T15:24:10;29.80;99.90
20654;DHT22;21083;50.898;4.902;2023-10-08T15:26:39;30.10;99.90
20654;DHT22;21083;50.898;4.902;2023-10-08T15:29:06;30.20;99.90
20654;DHT22;21083;50.898;4.902;2023-10-08T15:31:33;30.20;99.90
20654;DHT22;21083;50.898;4.902;2023-10-08T15:34:01;30.00;99.90
20654;DHT22;21083;50.898;4.902;2023-10-08T15:36:30;30.00;99.90
20654;DHT22;21083;50.898;4.902;2023-10-08T15:38:57;29.80;99.90
20654;DHT22;21083;50.898;4.902;2023-10-08T15:41:26;29.50;99.90
20654;DHT22;21083;50.898;4.902;2023-10-08T15:43:53;29.10;99.90
20654;DHT22;21083;50.898;4.902;2023-10-08T15:46:23;28.90;99.90
20654;DHT22;21083;50.898;4.902;2023-10-08T15:48:52;28.90;99.90
20654;DHT22;21083;50.898;4.902;2023-10-08T15:51:19;28.80;99.90
20654;DHT22;21083;50.898;4.902;2023-10-08T15:53:46;28.90;99.90
20654;DHT22;21083;50.898;4.902;2023-10-08T15:56:13;28.80;99.90
20654;DHT22;21083;50.898;4.902;2023-10-08T15:58:41;28.60;99.90